createdAt,value
2023-01-19T00:01:27.280Z,3.08
2023-01-19T00:04:14.205Z,2.40
2023-01-19T00:07:03.223Z,3.08
2023-01-19T00:09:49.869Z,4.40
2023-01-19T00:12:35.842Z,2.45
2023-01-19T00:15:22.013Z,2.10
2023-01-19T00:18:10.679Z,1.45
2023-01-19T00:20:57.508Z,2.47
2023-01-19T00:23:47.359Z,2.47
2023-01-19T00:26:33.655Z,0.95
2023-01-19T00:29:20.512Z,1.30
2023-01-19T00:32:07.225Z,1.98
2023-01-19T00:34:53.553Z,2.22
2023-01-19T00:37:39.794Z,1.20
2023-01-19T00:40:25.984Z,2.40
2023-01-19T00:43:12.532Z,3.55
2023-01-19T00:45:58.647Z,4.78
2023-01-19T00:48:45.134Z,2.88
2023-01-19T00:51:31.563Z,2.25
2023-01-19T00:54:17.738Z,1.45
2023-01-19T00:57:03.842Z,1.35
2023-01-19T00:59:50.000Z,1.52
2023-01-19T01:02:36.899Z,1.55
2023-01-19T01:05:23.161Z,0.85
2023-01-19T01:08:09.363Z,1.25
2023-01-19T01:10:55.519Z,4.93
2023-01-19T01:13:41.488Z,3.20
2023-01-19T01:16:27.563Z,1.15
2023-01-19T01:19:13.698Z,1.63
2023-01-19T01:21:59.745Z,1.10
2023-01-19T01:24:46.209Z,0.85
2023-01-19T01:27:32.605Z,1.00
2023-01-19T01:30:19.690Z,0.30
2023-01-19T01:33:05.929Z,0.70
2023-01-19T01:35:52.282Z,1.30
2023-01-19T01:38:39.701Z,0.47
2023-01-19T01:41:27.405Z,0.77
2023-01-19T01:44:51.607Z,1.85
2023-01-19T01:47:46.946Z,1.75
2023-01-19T01:50:35.520Z,2.90
2023-01-19T01:53:21.396Z,1.25
2023-01-19T01:56:13.287Z,1.50
2023-01-19T01:59:00.319Z,2.28
2023-01-19T02:02:04.611Z,1.50
2023-01-19T02:04:54.241Z,1.38
2023-01-19T02:08:06.764Z,1.55
2023-01-19T02:11:11.695Z,5.25
2023-01-19T02:13:57.769Z,2.72
2023-01-19T02:16:43.753Z,2.42
2023-01-19T02:19:43.881Z,2.15
2023-01-19T02:22:39.041Z,6.70
2023-01-19T02:25:25.686Z,5.72
2023-01-19T02:28:12.051Z,3.78
2023-01-19T02:30:58.909Z,5.63
2023-01-19T02:33:44.708Z,5.82
2023-01-19T02:36:58.741Z,5.15
2023-01-19T02:39:57.780Z,4.53
2023-01-19T02:42:50.875Z,5.35
2023-01-19T02:45:38.114Z,6.28
2023-01-19T02:48:24.101Z,3.80
2023-01-19T02:51:24.320Z,4.38
2023-01-19T02:54:16.477Z,2.10
2023-01-19T02:57:11.336Z,3.15
2023-01-19T03:00:32.714Z,2.30
2023-01-19T03:03:25.741Z,3.78
2023-01-19T03:06:17.717Z,1.50
2023-01-19T03:09:13.757Z,2.55
2023-01-19T03:12:36.435Z,4.90
2023-01-19T03:15:35.129Z,2.53
2023-01-19T03:18:25.022Z,4.07
2023-01-19T03:21:12.761Z,2.80
2023-01-19T03:24:02.822Z,5.47
2023-01-19T03:26:57.768Z,6.30
2023-01-19T03:29:51.041Z,5.45
2023-01-19T03:32:41.566Z,4.50
2023-01-19T03:35:32.474Z,4.70
2023-01-19T03:38:25.058Z,5.45
2023-01-19T03:41:15.661Z,5.77
2023-01-19T03:44:02.402Z,4.88
2023-01-19T03:46:48.929Z,6.60
2023-01-19T03:49:37.039Z,6.40
2023-01-19T03:52:30.068Z,7.57
2023-01-19T03:55:15.700Z,11.05
2023-01-19T03:58:01.600Z,11.60
2023-01-19T04:00:47.408Z,18.20
2023-01-19T04:03:33.761Z,15.63
2023-01-19T04:06:21.031Z,20.05
2023-01-19T04:09:06.864Z,25.80
2023-01-19T04:11:53.026Z,23.55
2023-01-19T04:14:38.972Z,27.85
2023-01-19T04:17:24.946Z,30.25
2023-01-19T04:20:11.505Z,34.42
2023-01-19T04:23:01.767Z,42.13
2023-01-19T04:25:48.011Z,36.13
2023-01-19T04:28:40.045Z,38.50
2023-01-19T04:31:26.320Z,37.17
2023-01-19T04:34:12.365Z,40.90
2023-01-19T04:36:58.546Z,37.20
2023-01-19T04:39:44.617Z,36.67
2023-01-19T04:42:31.150Z,33.28
2023-01-19T04:45:17.521Z,38.17
2023-01-19T04:48:07.749Z,33.83
2023-01-19T04:50:54.085Z,33.03
2023-01-19T04:53:40.260Z,36.55
2023-01-19T04:56:26.217Z,37.90
2023-01-19T04:59:12.450Z,37.20
2023-01-19T05:01:59.267Z,46.80
2023-01-19T05:04:46.384Z,50.22
2023-01-19T05:07:32.448Z,39.08
2023-01-19T05:10:18.780Z,41.00
2023-01-19T05:13:05.643Z,43.38
2023-01-19T05:15:52.201Z,39.20
2023-01-19T05:18:38.353Z,43.53
2023-01-19T05:21:24.520Z,39.20
2023-01-19T05:24:10.756Z,42.72
2023-01-19T05:26:57.066Z,42.13
2023-01-19T05:29:43.108Z,42.92
2023-01-19T05:32:29.449Z,38.55
2023-01-19T05:35:18.263Z,36.80
2023-01-19T05:38:06.639Z,35.95
2023-01-19T05:40:57.904Z,40.17
2023-01-19T05:43:43.988Z,33.03
2023-01-19T05:46:30.194Z,33.50
2023-01-19T05:49:16.349Z,34.42
2023-01-19T05:52:02.598Z,38.83
2023-01-19T05:54:49.028Z,38.65
2023-01-19T05:57:35.073Z,35.05
2023-01-19T06:00:21.628Z,40.20
2023-01-19T06:03:07.929Z,37.80
2023-01-19T06:05:54.135Z,41.30
2023-01-19T06:08:40.774Z,43.55
2023-01-19T06:11:26.989Z,35.75
2023-01-19T06:14:14.050Z,39.10
2023-01-19T06:17:00.178Z,39.95
2023-01-19T06:19:46.205Z,38.78
2023-01-19T06:22:32.399Z,36.03
2023-01-19T06:25:18.651Z,39.85
2023-01-19T06:28:04.795Z,41.17
2023-01-19T06:30:51.426Z,36.35
2023-01-19T06:33:37.751Z,30.17
2023-01-19T06:36:23.778Z,35.20
2023-01-19T06:39:10.747Z,34.92
2023-01-19T06:41:56.658Z,36.60
2023-01-19T06:44:47.628Z,34.50
2023-01-19T06:47:34.544Z,31.90
2023-01-19T06:50:20.858Z,31.17
2023-01-19T06:53:06.852Z,27.17
2023-01-19T06:55:53.143Z,31.27
2023-01-19T06:58:40.911Z,27.88
2023-01-19T07:01:27.321Z,26.35
2023-01-19T07:04:15.249Z,29.88
2023-01-19T07:07:01.612Z,27.15
2023-01-19T07:09:48.165Z,25.35
2023-01-19T07:12:34.176Z,33.83
2023-01-19T07:15:21.904Z,28.23
2023-01-19T07:18:09.343Z,24.17
2023-01-19T07:20:57.850Z,25.00
2023-01-19T07:23:43.878Z,23.85
2023-01-19T07:26:30.970Z,24.77
2023-01-19T07:29:17.068Z,24.35
2023-01-19T07:32:03.315Z,22.75
2023-01-19T07:34:49.488Z,24.40
2023-01-19T07:37:35.562Z,24.25
2023-01-19T07:40:23.943Z,25.45
2023-01-19T07:43:10.073Z,24.33
2023-01-19T07:45:57.927Z,30.65
2023-01-19T07:48:44.634Z,27.95
2023-01-19T07:51:30.961Z,29.90
2023-01-19T07:54:17.319Z,20.55
2023-01-19T07:57:04.154Z,24.33
2023-01-19T07:59:50.287Z,22.58
2023-01-19T08:02:37.298Z,22.52
2023-01-19T08:05:23.622Z,23.48
2023-01-19T08:08:11.694Z,25.70
2023-01-19T08:10:57.918Z,21.17
2023-01-19T08:13:44.292Z,18.20
2023-01-19T08:16:30.218Z,21.90
2023-01-19T08:19:16.435Z,21.60
2023-01-19T08:22:02.530Z,20.67
2023-01-19T08:24:50.345Z,18.75
2023-01-19T08:27:36.461Z,17.65
2023-01-19T08:30:23.960Z,20.58
2023-01-19T08:33:10.764Z,16.02
2023-01-19T08:35:56.969Z,15.80
2023-01-19T08:38:45.063Z,16.67
2023-01-19T08:41:31.148Z,15.95
2023-01-19T08:44:17.372Z,15.80
2023-01-19T08:47:03.604Z,19.75
2023-01-19T08:49:49.676Z,17.17
2023-01-19T08:52:35.758Z,21.75
2023-01-19T08:55:21.901Z,18.10
2023-01-19T08:58:08.978Z,23.95
2023-01-19T09:00:55.210Z,15.50
2023-01-19T09:03:41.953Z,15.90
2023-01-19T09:06:28.501Z,18.88
2023-01-19T09:09:14.786Z,17.80
2023-01-19T09:12:01.113Z,20.17
2023-01-19T09:14:47.120Z,16.98
2023-01-19T09:17:33.528Z,20.38
2023-01-19T09:20:20.003Z,19.45
2023-01-19T09:23:06.488Z,20.25
2023-01-19T09:25:57.165Z,21.17
2023-01-19T09:28:43.541Z,17.98
2023-01-19T09:31:30.297Z,20.35
2023-01-19T09:34:16.805Z,20.52
2023-01-19T09:37:03.967Z,18.02
2023-01-19T09:39:50.131Z,18.35
2023-01-19T09:42:48.461Z,17.55
2023-01-19T09:45:40.415Z,18.67
2023-01-19T09:48:30.316Z,21.38
2023-01-19T09:51:19.495Z,19.10
2023-01-19T09:54:18.054Z,17.95
2023-01-19T09:57:05.159Z,15.35
2023-01-19T09:59:51.669Z,16.63
2023-01-19T10:02:41.439Z,22.23
2023-01-19T10:05:31.541Z,17.95
2023-01-19T10:08:17.864Z,15.70
2023-01-19T10:11:06.664Z,15.45
2023-01-19T10:13:54.318Z,16.25
2023-01-19T10:16:40.515Z,14.95
2023-01-19T10:19:39.051Z,14.80
2023-01-19T10:22:26.553Z,17.42
2023-01-19T10:25:19.264Z,16.88
2023-01-19T10:28:05.892Z,16.20
2023-01-19T10:30:52.666Z,20.65
2023-01-19T10:33:39.807Z,17.77
2023-01-19T10:36:30.321Z,13.13
2023-01-19T10:39:18.247Z,18.13
2023-01-19T10:42:04.698Z,18.60
2023-01-19T10:44:51.249Z,17.52
2023-01-19T10:47:38.526Z,15.05
2023-01-19T10:50:27.284Z,15.60
2023-01-19T10:53:25.799Z,16.25
2023-01-19T10:56:17.375Z,17.25
2023-01-19T10:59:05.636Z,15.52
2023-01-19T11:02:11.086Z,14.38
2023-01-19T11:04:58.867Z,15.82
2023-01-19T11:07:45.534Z,18.83
2023-01-19T11:10:31.951Z,14.85
2023-01-19T11:13:18.086Z,18.50
2023-01-19T11:16:07.256Z,18.60
2023-01-19T11:18:55.110Z,16.45
2023-01-19T11:21:41.100Z,20.58
2023-01-19T11:24:27.364Z,17.88
2023-01-19T11:27:16.987Z,22.40
2023-01-19T11:30:09.833Z,18.13
2023-01-19T11:32:56.974Z,21.98
2023-01-19T11:35:43.330Z,16.00
2023-01-19T11:38:29.734Z,22.80
2023-01-19T11:41:19.166Z,16.67
2023-01-19T11:44:15.255Z,19.40
2023-01-19T11:47:03.629Z,15.82
2023-01-19T11:49:53.612Z,14.98
2023-01-19T11:52:46.511Z,23.92
2023-01-19T11:55:42.304Z,14.15
2023-01-19T11:58:29.286Z,15.48
2023-01-19T12:01:26.479Z,19.27
2023-01-19T12:04:20.537Z,16.70
2023-01-19T12:07:11.073Z,16.00
2023-01-19T12:10:24.075Z,19.13
2023-01-19T12:13:25.060Z,18.27
2023-01-19T12:16:29.769Z,14.63
2023-01-19T12:19:25.475Z,15.80
2023-01-19T12:22:21.979Z,16.42
2023-01-19T12:25:17.748Z,17.77
2023-01-19T12:28:04.721Z,18.25
2023-01-19T12:30:52.430Z,19.52
2023-01-19T12:33:40.066Z,20.25
2023-01-19T12:36:36.625Z,18.23
2023-01-19T12:39:23.730Z,17.48
2023-01-19T12:42:20.475Z,20.15
2023-01-19T12:45:09.881Z,21.88
2023-01-19T12:47:57.510Z,19.02
2023-01-19T12:50:47.133Z,21.67
2023-01-19T12:53:33.339Z,23.73
2023-01-19T12:56:20.372Z,21.05
2023-01-19T12:59:06.784Z,19.35
2023-01-19T13:02:12.191Z,24.58
2023-01-19T13:05:07.563Z,20.23
2023-01-19T13:08:03.843Z,22.63
2023-01-19T13:11:02.961Z,22.65
2023-01-19T13:13:49.649Z,21.08
2023-01-19T13:16:39.103Z,21.27
2023-01-19T13:19:31.964Z,19.33
2023-01-19T13:22:37.944Z,23.40
2023-01-19T13:25:29.395Z,20.10
2023-01-19T13:28:17.861Z,20.95
2023-01-19T13:31:05.802Z,22.33
2023-01-19T13:33:53.866Z,18.42
2023-01-19T13:36:43.625Z,21.08
2023-01-19T13:39:31.053Z,23.42
2023-01-19T13:42:40.828Z,19.73
2023-01-19T13:45:33.537Z,23.73
2023-01-19T13:48:22.345Z,20.50
2023-01-19T13:51:17.675Z,27.08
2023-01-19T13:54:05.807Z,21.65
2023-01-19T13:56:53.132Z,23.60
2023-01-19T13:59:39.330Z,25.10
2023-01-19T14:02:26.073Z,24.20
2023-01-19T14:05:16.438Z,22.67
2023-01-19T14:08:11.134Z,22.90
2023-01-19T14:10:58.643Z,24.67
2023-01-19T14:13:45.260Z,25.75
2023-01-19T14:16:32.078Z,29.48
2023-01-19T14:19:18.443Z,24.65
2023-01-19T14:22:05.570Z,27.05
2023-01-19T14:24:52.266Z,32.00
2023-01-19T14:27:39.723Z,26.40
2023-01-19T14:30:30.033Z,25.55
2023-01-19T14:33:35.554Z,24.05
2023-01-19T14:36:48.099Z,24.23
2023-01-19T14:39:36.402Z,24.80
2023-01-19T14:42:25.854Z,28.20
2023-01-19T14:45:21.187Z,24.70
2023-01-19T14:48:13.498Z,25.77
2023-01-19T14:51:04.799Z,30.27
2023-01-19T14:53:58.722Z,25.42
2023-01-19T14:56:45.907Z,28.55
2023-01-19T14:59:32.759Z,30.58
2023-01-19T15:02:20.122Z,29.85
2023-01-19T15:05:09.479Z,29.23
2023-01-19T15:08:03.304Z,34.58
2023-01-19T15:10:49.887Z,32.25
2023-01-19T15:13:36.617Z,32.95
2023-01-19T15:16:25.211Z,33.25
2023-01-19T15:19:16.084Z,39.88
2023-01-19T15:22:02.651Z,34.58
2023-01-19T15:24:50.132Z,38.42
2023-01-19T15:27:36.787Z,40.58
2023-01-19T15:30:25.609Z,40.80
2023-01-19T15:33:27.209Z,42.15
2023-01-19T15:36:18.417Z,52.03
2023-01-19T15:39:05.711Z,51.25
2023-01-19T15:41:52.871Z,55.05
2023-01-19T15:44:39.787Z,50.97
2023-01-19T15:47:26.511Z,57.15
2023-01-19T15:50:13.423Z,53.17
2023-01-19T15:53:00.878Z,52.50
2023-01-19T15:55:50.577Z,51.00
2023-01-19T15:58:37.282Z,56.80
2023-01-19T16:01:25.387Z,50.67
2023-01-19T16:04:12.568Z,50.85
2023-01-19T16:06:59.442Z,53.67
2023-01-19T16:09:46.147Z,56.65
2023-01-19T16:12:32.835Z,55.70
2023-01-19T16:15:19.199Z,56.22
2023-01-19T16:18:05.905Z,54.83
2023-01-19T16:20:52.299Z,59.83
2023-01-19T16:23:39.065Z,57.63
2023-01-19T16:26:28.588Z,61.63
2023-01-19T16:29:15.983Z,63.97
2023-01-19T16:32:02.280Z,60.53
2023-01-19T16:34:48.381Z,63.72
2023-01-19T16:37:35.254Z,57.15
2023-01-19T16:40:21.471Z,61.78
2023-01-19T16:43:07.726Z,58.80
2023-01-19T16:46:04.445Z,64.82
2023-01-19T16:48:51.760Z,66.05
2023-01-19T16:51:38.403Z,63.20
2023-01-19T16:54:28.497Z,65.53
2023-01-19T16:57:15.646Z,76.15
2023-01-19T17:00:02.444Z,71.10
2023-01-19T17:02:49.150Z,72.28
2023-01-19T17:05:35.164Z,80.28
2023-01-19T17:08:21.939Z,86.68
2023-01-19T17:11:12.628Z,99.63
2023-01-19T17:14:02.804Z,99.28
2023-01-19T17:16:49.966Z,100.53
2023-01-19T17:19:36.152Z,95.40
2023-01-19T17:22:22.410Z,91.82
2023-01-19T17:25:09.181Z,88.78
2023-01-19T17:27:55.723Z,92.32
2023-01-19T17:30:42.212Z,87.53
2023-01-19T17:33:28.438Z,80.95
2023-01-19T17:36:15.765Z,83.90
2023-01-19T17:39:07.955Z,82.00
2023-01-19T17:41:54.653Z,74.88
2023-01-19T17:44:42.619Z,73.95
2023-01-19T17:47:28.528Z,77.80
2023-01-19T17:50:14.865Z,71.47
2023-01-19T17:53:01.908Z,71.10
2023-01-19T17:55:48.945Z,68.07
2023-01-19T17:58:35.302Z,71.88
2023-01-19T18:01:22.833Z,71.25
2023-01-19T18:04:09.712Z,68.05
2023-01-19T18:06:55.939Z,67.18
2023-01-19T18:09:42.336Z,66.30
2023-01-19T18:12:28.266Z,70.00
2023-01-19T18:15:16.705Z,70.30
2023-01-19T18:18:03.105Z,73.82
2023-01-19T18:20:49.129Z,72.78
2023-01-19T18:23:35.529Z,73.72
2023-01-19T18:26:22.940Z,75.65
2023-01-19T18:29:09.142Z,73.15
2023-01-19T18:31:55.178Z,71.38
2023-01-19T18:34:41.170Z,67.63
2023-01-19T18:37:27.248Z,74.75
2023-01-19T18:40:13.931Z,68.63
2023-01-19T18:43:00.907Z,81.35
2023-01-19T18:45:48.272Z,80.10
2023-01-19T18:48:36.055Z,83.03
2023-01-19T18:51:22.482Z,78.13
2023-01-19T18:54:08.477Z,75.57
2023-01-19T18:56:54.501Z,79.68
2023-01-19T18:59:43.942Z,75.90
2023-01-19T19:02:29.989Z,77.43
2023-01-19T19:05:16.729Z,81.40
2023-01-19T19:08:03.142Z,71.95
2023-01-19T19:10:49.363Z,69.00
2023-01-19T19:13:35.777Z,73.05
2023-01-19T19:16:22.965Z,75.07
2023-01-19T19:19:12.581Z,74.32
2023-01-19T19:21:59.299Z,71.60
2023-01-19T19:24:46.371Z,73.00
2023-01-19T19:27:33.109Z,72.97
2023-01-19T19:30:20.558Z,66.05
2023-01-19T19:33:08.477Z,71.60
2023-01-19T19:35:58.134Z,84.22
2023-01-19T19:38:44.827Z,75.93
2023-01-19T19:41:32.538Z,79.65
2023-01-19T19:44:18.987Z,70.15
2023-01-19T19:47:05.211Z,78.65
2023-01-19T19:49:51.326Z,75.43
2023-01-19T19:52:41.810Z,73.55
2023-01-19T19:55:28.365Z,75.97
2023-01-19T19:58:14.519Z,85.18
2023-01-19T20:01:03.606Z,81.53
2023-01-19T20:03:50.834Z,82.20
2023-01-19T20:06:40.379Z,79.30
2023-01-19T20:09:26.999Z,88.13
2023-01-19T20:12:14.130Z,81.75
2023-01-19T20:15:00.289Z,89.53
2023-01-19T20:17:46.391Z,94.32
2023-01-19T20:20:33.711Z,93.28
2023-01-19T20:23:20.292Z,87.63
2023-01-19T20:26:08.599Z,91.88
2023-01-19T20:28:55.571Z,90.13
2023-01-19T20:31:53.056Z,107.25
2023-01-19T20:34:39.946Z,89.07
2023-01-19T20:37:27.282Z,89.45
2023-01-19T20:40:13.593Z,90.55
2023-01-19T20:43:00.548Z,97.32
2023-01-19T20:45:51.292Z,104.22
2023-01-19T20:48:39.361Z,104.75
2023-01-19T20:51:26.920Z,105.88
2023-01-19T20:54:18.998Z,125.63
2023-01-19T20:57:05.486Z,115.67
2023-01-19T20:59:51.707Z,113.47
2023-01-19T21:02:38.256Z,105.35
2023-01-19T21:05:25.754Z,118.55
2023-01-19T21:08:13.455Z,127.43
2023-01-19T21:11:00.316Z,118.95
2023-01-19T21:13:46.613Z,123.03
2023-01-19T21:16:34.137Z,126.38
2023-01-19T21:19:21.034Z,111.15
2023-01-19T21:22:07.701Z,113.32
2023-01-19T21:24:54.347Z,128.20
2023-01-19T21:27:40.519Z,143.60
2023-01-19T21:30:28.004Z,135.60
2023-01-19T21:33:14.948Z,141.95
2023-01-19T21:36:02.104Z,142.73
2023-01-19T21:38:49.198Z,137.23
2023-01-19T21:41:39.227Z,130.73
2023-01-19T21:44:25.685Z,332.65
2023-01-19T21:47:12.511Z,139.27
2023-01-19T21:49:59.807Z,297.83
2023-01-19T21:52:46.679Z,139.18
2023-01-19T21:55:34.046Z,219.57
2023-01-19T21:58:20.050Z,295.80
2023-01-19T22:01:10.947Z,135.70
2023-01-19T22:03:57.674Z,211.00
2023-01-19T22:06:44.103Z,161.60
2023-01-19T22:09:30.303Z,665.88
2023-01-19T22:12:16.437Z,300.95
2023-01-19T22:15:03.150Z,285.90
2023-01-19T22:17:49.336Z,296.90
2023-01-19T22:20:35.519Z,374.83
2023-01-19T22:23:22.275Z,720.50
2023-01-19T22:26:09.699Z,458.38
2023-01-19T22:28:56.801Z,348.25
2023-01-19T22:31:43.257Z,348.45
2023-01-19T22:34:29.471Z,263.70
2023-01-19T22:37:15.447Z,699.03
2023-01-19T22:40:01.945Z,378.13
2023-01-19T22:42:49.103Z,312.50
2023-01-19T22:45:35.589Z,505.40
2023-01-19T22:48:22.332Z,215.15
2023-01-19T22:51:08.586Z,195.52
2023-01-19T22:53:54.663Z,560.08
2023-01-19T22:56:41.407Z,512.90
2023-01-19T22:59:27.391Z,436.17
2023-01-19T23:02:13.603Z,409.95
2023-01-19T23:04:59.556Z,532.75
2023-01-19T23:07:45.607Z,527.45
2023-01-19T23:10:31.706Z,521.92
2023-01-19T23:13:17.723Z,483.52
2023-01-19T23:16:04.249Z,121.63
2023-01-19T23:18:53.362Z,230.13
2023-01-19T23:21:39.729Z,394.65
2023-01-19T23:24:25.882Z,445.23
2023-01-19T23:27:12.040Z,317.25
2023-01-19T23:29:58.161Z,608.42
2023-01-19T23:32:47.458Z,197.40
2023-01-19T23:35:35.711Z,460.23
2023-01-19T23:38:22.670Z,582.72
2023-01-19T23:41:09.521Z,243.85
2023-01-19T23:43:55.565Z,204.30
2023-01-19T23:46:43.999Z,458.27
2023-01-19T23:49:29.918Z,315.13
2023-01-19T23:52:15.868Z,474.92
2023-01-19T23:55:01.854Z,232.77
2023-01-19T23:57:47.915Z,346.30
